Time;durP1;ratioP1;P1;durP2;ratioP2;P2;SDS_P1;SDS_P2;PMS_P1;PMS_P2;Temp;Humidity;BMP_temperature;BMP_pressure;BME280_temperature;BME280_humidity;BME280_pressure;Samples;Min_cycle;Max_cycle;Signal;HPM_P1;HPM_P2
2021/05/24 00:00:21;;;;;;;11.35;5.43;;;;;;;16.87;78.55;100776.47;5121472;28;20501;-81
2021/05/24 00:03:26;;;;;;;10.10;4.43;;;;;;;17.01;78.31;100762.28;5134082;28;20504;-77
2021/05/24 00:06:30;;;;;;;13.23;5.15;;;;;;;17.07;78.51;100777.91;5135145;28;20074;-78
2021/05/24 00:09:35;;;;;;;10.00;4.75;;;;;;;17.12;78.46;100785.53;5134842;28;20042;-79
2021/05/24 00:12:46;;;;;;;11.73;5.20;;;;;;;17.14;78.13;100772.63;5122418;28;20050;-79
2021/05/24 00:15:53;;;;;;;14.45;4.95;;;;;;;17.19;77.68;100770.28;5134816;28;20063;-80
2021/05/24 00:18:58;;;;;;;14.05;4.93;;;;;;;17.15;77.95;100771.63;5134588;28;20066;-78
2021/05/24 00:22:02;;;;;;;12.38;5.68;;;;;;;17.12;78.12;100769.25;5134734;28;20050;-78
2021/05/24 00:25:07;;;;;;;18.40;5.63;;;;;;;17.20;77.98;100769.28;5134765;28;20057;-78
2021/05/24 00:28:14;;;;;;;15.00;6.07;;;;;;;17.15;78.12;100749.94;5122041;28;20420;-77
2021/05/24 00:31:18;;;;;;;12.23;5.40;;;;;;;17.10;78.35;100747.72;5134677;28;20070;-78
2021/05/24 00:34:22;;;;;;;13.43;5.68;;;;;;;16.98;78.81;100743.63;5134636;28;20054;-77
2021/05/24 00:37:26;;;;;;;15.82;5.80;;;;;;;16.98;79.57;100735.50;5134626;28;20051;-78
2021/05/24 00:40:32;;;;;;;13.13;5.72;;;;;;;17.03;79.46;100745.84;5121906;28;20058;-79
2021/05/24 00:43:37;;;;;;;14.32;6.07;;;;;;;17.09;79.37;100723.47;5134593;28;20054;-79
2021/05/24 00:46:42;;;;;;;15.25;6.20;;;;;;;17.02;79.59;100725.16;5134233;28;20386;-79
2021/05/24 00:49:47;;;;;;;15.00;6.32;;;;;;;17.08;79.73;100725.34;5134468;28;20050;-77
2021/05/24 00:52:51;;;;;;;14.88;6.28;;;;;;;17.05;79.91;100720.25;5134503;28;20047;-77
2021/05/24 00:55:55;;;;;;;14.70;6.45;;;;;;;16.99;80.13;100707.34;5092337;28;20494;-78
2021/05/24 00:59:00;;;;;;;15.82;5.70;;;;;;;17.00;80.90;100702.78;5095254;28;20055;-81
2021/05/24 01:02:04;;;;;;;12.98;6.30;;;;;;;17.00;80.55;100706.34;5097246;28;20047;-77
2021/05/24 01:05:09;;;;;;;15.55;6.10;;;;;;;17.05;80.57;100692.28;5097206;28;20051;-78
2021/05/24 01:08:14;;;;;;;12.57;6.28;;;;;;;16.94;81.06;100689.91;5097065;28;20055;-78
2021/05/24 01:11:22;;;;;;;14.90;5.72;;;;;;;16.93;80.96;100683.63;5096591;28;20118;-77
2021/05/24 01:14:27;;;;;;;22.10;7.07;;;;;;;16.87;81.13;100663.44;5097031;28;20494;-78
2021/05/24 01:17:32;;;;;;;13.45;5.75;;;;;;;16.86;80.84;100677.19;5096973;28;20043;-81
2021/05/24 01:20:36;;;;;;;22.20;5.28;;;;;;;16.88;80.66;100686.84;5096821;28;20058;-80
2021/05/24 01:23:42;;;;;;;13.82;5.97;;;;;;;16.77;81.45;100681.72;5097127;28;20383;-80
2021/05/24 01:26:48;;;;;;;14.57;6.15;;;;;;;16.85;81.20;100667.34;5096035;28;20387;-78
2021/05/24 01:29:56;;;;;;;14.73;7.22;;;;;;;16.80;81.26;100648.88;5096713;28;20367;-79
2021/05/24 01:33:01;;;;;;;13.23;5.40;;;;;;;16.86;81.27;100644.66;5095858;28;20494;-78
2021/05/24 01:36:08;;;;;;;16.90;6.28;;;;;;;16.85;81.20;100653.78;5096564;28;20047;-77
2021/05/24 01:39:12;;;;;;;13.85;5.70;;;;;;;16.85;80.72;100637.50;5096566;28;20055;-78
2021/05/24 01:42:16;;;;;;;13.75;5.85;;;;;;;16.85;80.67;100645.66;5095759;28;20047;-79
2021/05/24 01:45:21;;;;;;;15.52;5.88;;;;;;;16.82;81.21;100649.53;5096473;28;20066;-78
2021/05/24 01:48:25;;;;;;;22.60;5.50;;;;;;;16.82;80.95;100660.38;5096369;28;20423;-79
2021/05/24 01:51:29;;;;;;;14.82;5.40;;;;;;;16.83;80.75;100666.66;5096328;28;20055;-78
2021/05/24 01:54:34;;;;;;;17.85;5.63;;;;;;;16.76;80.98;100657.50;5112201;27;20051;-78
2021/05/24 01:57:39;;;;;;;14.65;5.25;;;;;;;16.78;80.68;100683.44;5124255;27;20054;-77
2021/05/24 02:00:43;;;;;;;15.93;5.30;;;;;;;16.72;80.78;100696.78;5124388;27;20050;-79
2021/05/24 02:03:48;;;;;;;16.75;5.40;;;;;;;16.80;80.80;100710.38;5137044;27;20054;-79
2021/05/24 02:06:52;;;;;;;17.58;5.95;;;;;;;16.83;80.97;100720.88;5137235;27;20378;-78
2021/05/24 02:09:56;;;;;;;12.98;5.40;;;;;;;16.78;80.28;100720.53;5136149;27;20050;-77
2021/05/24 02:13:01;;;;;;;14.50;5.10;;;;;;;16.84;80.27;100738.84;5136862;27;20054;-78
2021/05/24 02:16:06;;;;;;;11.75;4.70;;;;;;;16.81;79.93;100734.59;5136754;27;20058;-80
2021/05/24 02:19:13;;;;;;;17.60;6.05;;;;;;;16.84;79.80;100728.00;5156405;27;20054;-77
2021/05/24 02:22:18;;;;;;;11.25;4.28;;;;;;;16.82;79.12;100711.91;5144632;27;20046;-79
2021/05/24 02:25:23;;;;;;;12.68;4.35;;;;;;;16.71;79.08;100700.53;5157347;27;20049;-78
2021/05/24 02:28:28;;;;;;;12.60;4.38;;;;;;;16.69;79.01;100687.13;5157274;27;20061;-77
2021/05/24 02:31:33;;;;;;;14.50;4.63;;;;;;;16.66;78.77;100681.22;5156982;27;20488;-81
2021/05/24 02:34:37;;;;;;;13.65;4.53;;;;;;;16.71;78.40;100681.56;5157424;27;20045;-79
2021/05/24 02:37:43;;;;;;;14.80;4.03;;;;;;;16.73;79.12;100707.50;5157148;27;20046;-82
2021/05/24 02:40:48;;;;;;;13.77;4.88;;;;;;;16.72;80.09;100746.44;5156958;27;20158;-77
2021/05/24 02:43:52;;;;;;;9.38;3.50;;;;;;;16.74;79.79;100749.81;5156982;27;20049;-78
2021/05/24 02:46:56;;;;;;;13.50;4.00;;;;;;;16.65;79.64;100752.69;5156916;27;20049;-78
2021/05/24 02:50:06;;;;;;;12.38;3.80;;;;;;;16.58;80.44;100776.03;5156568;27;20044;-77
2021/05/24 02:53:10;;;;;;;16.30;5.10;;;;;;;16.44;80.76;100780.19;5143488;27;20041;-79
2021/05/24 02:56:14;;;;;;;17.13;4.50;;;;;;;16.35;81.48;100786.56;5156672;27;20042;-79
2021/05/24 02:59:19;;;;;;;11.13;3.85;;;;;;;16.16;82.72;100776.81;5156599;27;20046;-78
2021/05/24 03:02:28;;;;;;;12.00;4.13;;;;;;;16.02;83.65;100761.13;5156589;27;20385;-78
2021/05/24 03:05:32;;;;;;;14.18;4.20;;;;;;;15.95;85.16;100759.25;5156322;27;20046;-79
2021/05/24 03:08:37;;;;;;;13.27;4.82;;;;;;;15.91;85.96;100741.59;5137910;27;20066;-77
2021/05/24 03:11:40;;;;;;;15.90;5.95;;;;;;;15.82;86.75;100739.84;5135528;27;20054;-80
2021/05/24 03:14:45;;;;;;;12.15;5.82;;;;;;;15.73;86.50;100730.81;5135318;27;20112;-79
2021/05/24 03:17:49;;;;;;;11.55;5.15;;;;;;;15.60;85.46;100733.94;5135423;27;20062;-78
2021/05/24 03:20:53;;;;;;;8.88;4.28;;;;;;;15.47;84.04;100727.25;5134946;27;20057;-79
2021/05/24 03:23:58;;;;;;;10.50;5.00;;;;;;;15.43;83.76;100723.97;5154889;27;20420;-78
2021/05/24 03:27:02;;;;;;;9.57;4.38;;;;;;;15.40;83.43;100718.88;5155881;27;20489;-78
2021/05/24 03:30:09;;;;;;;8.73;4.35;;;;;;;15.48;82.25;100720.84;5155796;27;20488;-83
2021/05/24 03:33:14;;;;;;;8.13;4.30;;;;;;;15.41;80.40;100717.00;5142653;27;20050;-76
2021/05/24 03:36:19;;;;;;;7.78;4.13;;;;;;;15.47;80.41;100740.78;5155793;27;20504;-79
2021/05/24 03:39:24;;;;;;;10.40;4.03;;;;;;;15.27;79.54;100728.38;5142348;27;20069;-75
2021/05/24 03:42:29;;;;;;;13.82;4.03;;;;;;;15.07;78.80;100738.50;5155573;27;20054;-80
2021/05/24 03:45:35;;;;;;;9.43;3.53;;;;;;;14.75;78.19;100709.31;5155250;27;20053;-76
2021/05/24 03:48:40;;;;;;;11.95;4.03;;;;;;;14.61;78.10;100677.41;5143118;27;20058;-79
2021/05/24 03:51:44;;;;;;;8.60;4.50;;;;;;;14.63;79.33;100667.28;5155878;27;20515;-77
2021/05/24 03:54:49;;;;;;;13.10;5.30;;;;;;;14.57;79.88;100694.06;5155268;27;20050;-77
2021/05/24 03:57:54;;;;;;;11.07;5.35;;;;;;;14.61;81.07;100701.72;5155823;27;20050;-80
2021/05/24 04:00:58;;;;;;;12.95;5.50;;;;;;;14.54;80.80;100692.50;5155708;27;20069;-77
2021/05/24 04:04:04;;;;;;;12.48;5.60;;;;;;;14.57;82.30;100711.13;5155686;27;20054;-78
2021/05/24 04:07:11;;;;;;;12.65;5.93;;;;;;;14.63;81.84;100715.94;5155676;27;20058;-78
2021/05/24 04:10:17;;;;;;;11.82;6.35;;;;;;;14.62;81.20;100706.09;5155588;27;20046;-79
2021/05/24 04:13:22;;;;;;;12.93;5.95;;;;;;;14.51;82.14;100692.81;5142720;27;20042;-78
2021/05/24 04:16:26;;;;;;;9.20;4.90;;;;;;;14.44;80.24;100680.94;5155380;27;20038;-77
2021/05/24 04:19:31;;;;;;;9.93;4.88;;;;;;;14.39;79.77;100672.44;5155393;27;20382;-75
2021/05/24 04:22:35;;;;;;;17.45;12.23;;;;;;;14.39;80.53;100641.88;5155482;27;20393;-76
2021/05/24 04:25:40;;;;;;;12.02;5.95;;;;;;;14.21;82.67;100631.84;5142674;27;20385;-77
2021/05/24 04:28:45;;;;;;;13.50;6.28;;;;;;;14.19;83.86;100620.38;5155330;27;20050;-78
2021/05/24 04:31:49;;;;;;;13.07;6.28;;;;;;;14.17;84.53;100613.41;5156214;27;20050;-77
2021/05/24 04:34:53;;;;;;;10.18;5.32;;;;;;;14.26;85.25;100631.41;5159445;27;20046;-77
2021/05/24 04:37:58;;;;;;;11.50;5.75;;;;;;;14.41;85.08;100647.97;5159420;27;20042;-76
2021/05/24 04:41:02;;;;;;;11.32;5.68;;;;;;;14.58;85.01;100650.69;5154038;27;20050;-75
2021/05/24 04:44:25;;;;;;;10.95;5.90;;;;;;;14.76;84.96;100659.63;5149757;27;20038;-80
2021/05/24 04:47:29;;;;;;;10.55;5.75;;;;;;;15.03;84.93;100674.94;5138540;27;20377;-78
2021/05/24 04:50:37;;;;;;;9.77;5.65;;;;;;;15.22;84.47;100703.66;5141597;27;20496;-77
2021/05/24 04:53:41;;;;;;;11.55;4.85;;;;;;;15.43;83.71;100720.44;5158899;27;20056;-78
2021/05/24 04:56:45;;;;;;;7.93;4.15;;;;;;;15.51;82.07;100737.59;5145944;27;20058;-80
2021/05/24 04:59:50;;;;;;;6.20;3.67;;;;;;;15.48;80.63;100746.00;5158934;27;20054;-80
2021/05/24 05:02:54;;;;;;;8.50;4.18;;;;;;;15.52;81.11;100770.91;5159153;27;20090;-77
2021/05/24 05:05:59;;;;;;;9.80;4.30;;;;;;;15.58;81.11;100756.75;5158831;27;20050;-82
2021/05/24 05:09:04;;;;;;;10.43;4.47;;;;;;;15.59;80.79;100758.47;5158758;27;20049;-78
2021/05/24 05:12:08;;;;;;;6.63;3.50;;;;;;;15.63;80.81;100767.94;5158747;27;20057;-78
2021/05/24 05:15:13;;;;;;;10.63;4.25;;;;;;;15.50;80.63;100798.13;5145825;27;20045;-77
2021/05/24 05:18:17;;;;;;;12.82;3.92;;;;;;;15.37;80.53;100811.16;5145827;27;20054;-78
2021/05/24 05:21:21;;;;;;;10.75;3.95;;;;;;;15.10;80.97;100840.97;5145752;27;20061;-78
2021/05/24 05:24:25;;;;;;;8.90;3.72;;;;;;;14.89;81.68;100862.84;5158148;27;20054;-79
2021/05/24 05:27:30;;;;;;;9.05;4.18;;;;;;;14.60;82.88;100864.81;5158122;27;20054;-78
2021/05/24 05:30:35;;;;;;;8.10;3.50;;;;;;;14.25;83.58;100870.00;5158546;27;20053;-77
2021/05/24 05:33:39;;;;;;;6.95;3.60;;;;;;;13.99;85.23;100844.63;5158017;27;20508;-76
2021/05/24 05:36:43;;;;;;;8.50;4.10;;;;;;;13.84;85.83;100833.44;5158086;27;20061;-81
2021/05/24 05:39:52;;;;;;;11.07;3.90;;;;;;;13.81;86.34;100840.94;5158321;27;20065;-77
2021/05/24 05:42:57;;;;;;;7.35;3.17;;;;;;;13.56;86.08;100845.94;5156747;27;20057;-78
2021/05/24 05:46:01;;;;;;;7.75;3.10;;;;;;;13.42;86.64;100827.47;5135429;27;20054;-81
2021/05/24 05:49:05;;;;;;;8.05;3.28;;;;;;;13.50;86.78;100799.81;5147574;27;20038;-80
2021/05/24 05:52:12;;;;;;;8.13;2.95;;;;;;;13.54;85.82;100785.03;5139178;27;20513;-76
2021/05/24 05:55:16;;;;;;;5.18;2.90;;;;;;;13.46;85.28;100774.09;5136318;27;20055;-76
2021/05/24 05:58:21;;;;;;;12.95;2.88;;;;;;;13.46;85.61;100769.56;5136649;27;20043;-79
2021/05/24 06:01:25;;;;;;;5.15;2.65;;;;;;;13.54;85.22;100775.09;5136929;27;20066;-78
2021/05/24 06:04:29;;;;;;;6.97;2.30;;;;;;;13.46;84.69;100777.66;5141386;27;20050;-78
2021/05/24 06:07:34;;;;;;;6.75;2.88;;;;;;;13.41;84.91;100774.53;5136880;27;20476;-75
2021/05/24 06:10:38;;;;;;;6.97;2.75;;;;;;;13.44;85.03;100763.47;5139758;27;20050;-74
2021/05/24 06:13:42;;;;;;;7.47;2.50;;;;;;;13.48;84.57;100746.00;5136768;27;20476;-73
2021/05/24 06:16:48;;;;;;;6.90;2.65;;;;;;;13.47;85.01;100728.13;5136338;27;20493;-74
2021/05/24 06:19:52;;;;;;;6.30;2.38;;;;;;;13.49;86.25;100722.56;5096486;27;20054;-75
2021/05/24 06:22:57;;;;;;;4.78;2.30;;;;;;;13.54;85.63;100702.28;5138375;27;20046;-76
2021/05/24 06:26:01;;;;;;;14.00;3.15;;;;;;;13.58;86.28;100676.72;5136455;27;20050;-76
2021/05/24 06:29:06;;;;;;;13.07;2.67;;;;;;;13.69;85.83;100676.53;5147967;27;20061;-76
2021/05/24 06:32:11;;;;;;;7.50;2.33;;;;;;;13.88;85.71;100672.06;5148468;27;20049;-76
2021/05/24 06:35:16;;;;;;;6.30;2.33;;;;;;;14.04;84.87;100677.69;5144306;27;20120;-77
2021/05/24 06:38:21;;;;;;;5.43;2.40;;;;;;;14.24;84.06;100674.75;5150870;27;20061;-76
2021/05/24 06:41:25;;;;;;;8.02;2.42;;;;;;;14.58;81.88;100655.25;5156898;27;20483;-76
2021/05/24 06:44:30;;;;;;;6.22;2.03;;;;;;;14.84;80.15;100642.66;5120798;27;20054;-76
2021/05/24 06:47:36;;;;;;;6.18;1.80;;;;;;;15.00;78.96;100637.41;5120376;27;20054;-75
2021/05/24 06:50:40;;;;;;;4.70;1.90;;;;;;;14.89;78.39;100649.31;5120486;27;20049;-75
2021/05/24 06:53:45;;;;;;;7.13;2.10;;;;;;;14.88;80.37;100649.47;5120276;27;20136;-75
2021/05/24 06:56:49;;;;;;;7.53;1.98;;;;;;;14.73;79.92;100664.53;5119627;27;20062;-76
2021/05/24 06:59:54;;;;;;;7.05;2.20;;;;;;;14.58;81.41;100660.66;5156441;27;20054;-76
2021/05/24 07:02:58;;;;;;;5.75;1.80;;;;;;;14.38;81.88;100641.00;5119888;27;20066;-78
2021/05/24 07:06:03;;;;;;;7.82;2.38;;;;;;;14.27;81.55;100638.47;5118304;27;20046;-78
2021/05/24 07:09:08;;;;;;;4.03;2.20;;;;;;;14.22;83.19;100646.22;5116315;27;20050;-77
2021/05/24 07:12:12;;;;;;;6.60;2.15;;;;;;;14.28;83.97;100624.84;5111207;27;20050;-76
2021/05/24 07:15:16;;;;;;;5.53;2.17;;;;;;;14.29;84.21;100628.41;5122943;27;20390;-78
2021/05/24 07:18:21;;;;;;;4.82;2.03;;;;;;;14.39;83.30;100622.97;5111189;27;20046;-77
2021/05/24 07:21:26;;;;;;;4.32;2.00;;;;;;;14.46;84.32;100608.69;5135483;27;20531;-77
2021/05/24 07:24:31;;;;;;;6.50;2.67;;;;;;;14.54;84.04;100599.84;5135413;27;20050;-76
2021/05/24 07:27:35;;;;;;;5.63;2.38;;;;;;;14.52;83.98;100605.38;5123104;27;20047;-76
2021/05/24 07:30:40;;;;;;;6.93;2.47;;;;;;;14.52;83.04;100615.31;5122610;27;20050;-76
2021/05/24 07:33:45;;;;;;;9.20;3.05;;;;;;;14.56;81.19;100608.63;5135516;27;20053;-76
2021/05/24 07:36:49;;;;;;;7.03;2.80;;;;;;;14.55;81.72;100605.06;5135076;27;20062;-76
2021/05/24 07:39:54;;;;;;;6.63;2.85;;;;;;;14.66;81.01;100636.41;5122443;27;20043;-76
2021/05/24 07:42:59;;;;;;;6.03;3.00;;;;;;;14.72;82.41;100641.19;5122642;27;20425;-76
2021/05/24 07:46:03;;;;;;;5.47;2.45;;;;;;;14.78;83.77;100627.06;5122347;27;20101;-76
2021/05/24 07:49:07;;;;;;;5.50;2.58;;;;;;;14.63;84.36;100618.66;5135071;27;20038;-77
2021/05/24 07:52:12;;;;;;;5.82;2.53;;;;;;;14.71;85.18;100651.19;5122381;27;20046;-77
2021/05/24 07:55:17;;;;;;;9.02;3.45;;;;;;;14.80;85.06;100689.91;5134423;27;20398;-75
2021/05/24 07:58:21;;;;;;;6.65;3.08;;;;;;;14.84;85.96;100759.72;5122329;28;20046;-77
2021/05/24 08:01:26;;;;;;;8.13;3.28;;;;;;;14.96;85.43;100758.50;5134991;27;20374;-78
2021/05/24 08:04:30;;;;;;;5.97;2.60;;;;;;;15.07;85.40;100740.38;5122300;28;20054;-78
2021/05/24 08:07:35;;;;;;;7.07;2.70;;;;;;;15.09;84.67;100728.38;5134563;27;20051;-80
2021/05/24 08:10:40;;;;;;;7.53;3.30;;;;;;;15.13;84.57;100764.94;5134023;28;20070;-82
2021/05/24 08:13:45;;;;;;;7.35;3.67;;;;;;;15.16;84.74;100774.63;5134289;28;20058;-77
2021/05/24 08:16:52;;;;;;;9.18;2.80;;;;;;;15.20;84.24;100776.00;5134444;28;20050;-78
2021/05/24 08:19:56;;;;;;;6.07;2.58;;;;;;;15.14;84.79;100752.25;5122287;28;20050;-75
2021/05/24 08:23:01;;;;;;;6.35;2.97;;;;;;;15.04;85.14;100756.88;5134750;28;20382;-75
2021/05/24 08:26:06;;;;;;;6.53;2.65;;;;;;;14.92;85.69;100749.00;5134653;28;20054;-77
2021/05/24 08:29:10;;;;;;;7.68;3.38;;;;;;;14.92;85.95;100734.63;5134883;28;20066;-75
2021/05/24 08:32:15;;;;;;;11.50;2.70;;;;;;;14.93;86.53;100726.41;5134649;28;20051;-76
2021/05/24 08:35:21;;;;;;;8.50;2.78;;;;;;;15.08;87.12;100707.78;5134543;28;20050;-76
2021/05/24 08:38:26;;;;;;;6.47;2.67;;;;;;;15.25;86.88;100727.69;5134667;28;20050;-75
2021/05/24 08:41:33;;;;;;;8.05;3.20;;;;;;;15.37;86.62;100750.78;5134447;28;20397;-75
2021/05/24 08:44:38;;;;;;;5.60;3.00;;;;;;;15.44;86.07;100770.81;5134563;28;20481;-75
2021/05/24 08:47:43;;;;;;;5.53;2.97;;;;;;;15.41;85.62;100763.84;5122082;28;20535;-74
2021/05/24 08:50:51;;;;;;;4.13;2.45;;;;;;;15.42;85.65;100759.28;5134502;28;20047;-74
2021/05/24 08:53:58;;;;;;;5.88;3.05;;;;;;;15.49;85.35;100769.38;5134332;28;20049;-74
2021/05/24 08:57:04;;;;;;;6.88;4.20;;;;;;;15.43;84.77;100728.53;5121702;28;20073;-77
2021/05/24 09:00:15;;;;;;;9.93;2.80;;;;;;;15.51;84.83;100688.91;5134487;28;20405;-77
2021/05/24 09:03:31;;;;;;;8.70;2.63;;;;;;;15.50;84.92;100670.13;5134344;28;20050;-75
2021/05/24 09:06:41;;;;;;;7.93;3.20;;;;;;;15.63;84.20;100646.16;5110546;28;20046;-75
2021/05/24 09:10:04;;;;;;;7.32;2.95;;;;;;;15.68;83.87;100641.13;5134028;28;20042;-75
2021/05/24 09:13:18;;;;;;;5.82;2.78;;;;;;;15.72;83.03;100642.53;5134270;28;20046;-75
2021/05/24 09:16:32;;;;;;;6.03;3.22;;;;;;;15.85;83.50;100625.84;5110170;28;20062;-76
2021/05/24 09:19:37;;;;;;;6.20;3.30;;;;;;;15.98;82.99;100637.91;5136175;27;20047;-75
2021/05/24 09:22:42;;;;;;;7.53;2.88;;;;;;;16.02;82.90;100662.81;5137833;27;20070;-75
2021/05/24 09:25:57;;;;;;;6.10;3.13;;;;;;;15.80;84.72;100677.75;5137734;27;20515;-75
2021/05/24 09:29:06;;;;;;;7.22;3.42;;;;;;;15.79;85.34;100680.63;5137732;27;20042;-76
2021/05/24 09:32:17;;;;;;;9.85;3.40;;;;;;;15.71;85.20;100689.53;5113449;27;20046;-76
2021/05/24 09:35:28;;;;;;;8.18;3.97;;;;;;;15.64;85.72;100704.72;5137367;27;20050;-74
2021/05/24 09:38:35;;;;;;;7.85;4.50;;;;;;;15.66;84.89;100710.81;5137528;27;20512;-73
2021/05/24 09:41:42;;;;;;;6.45;3.58;;;;;;;15.65;83.77;100711.84;5137384;27;20382;-74
2021/05/24 09:44:51;;;;;;;7.45;4.45;;;;;;;15.56;84.45;100729.00;5137350;27;20053;-74
2021/05/24 09:47:59;;;;;;;7.07;4.65;;;;;;;15.53;84.52;100719.34;5112905;27;20054;-74
2021/05/24 09:51:06;;;;;;;9.77;5.05;;;;;;;15.41;84.88;100687.25;5137250;27;20050;-74
2021/05/24 09:54:15;;;;;;;6.50;4.18;;;;;;;15.46;85.13;100637.13;5136026;27;20046;-73
2021/05/24 09:57:19;;;;;;;7.53;4.22;;;;;;;15.36;84.95;100635.47;5136925;27;20050;-73
2021/05/24 10:00:38;;;;;;;7.10;4.05;;;;;;;15.34;85.44;100632.09;5136015;27;20050;-74
2021/05/24 10:03:45;;;;;;;9.63;5.75;;;;;;;15.29;85.38;100648.78;5124560;27;20116;-74
2021/05/24 10:06:51;;;;;;;13.48;7.70;;;;;;;15.35;85.90;100656.28;5124528;27;20050;-73
2021/05/24 10:09:56;;;;;;;13.57;5.00;;;;;;;15.34;86.34;100684.34;5123971;27;20055;-74
2021/05/24 10:13:01;;;;;;;6.75;4.38;;;;;;;15.39;86.57;100649.53;5100604;27;20061;-75
2021/05/24 10:16:11;;;;;;;7.78;4.15;;;;;;;15.34;86.36;100575.28;5100536;27;20046;-74
2021/05/24 10:19:18;;;;;;;5.82;3.95;;;;;;;15.31;86.03;100575.59;5100405;27;20050;-74
2021/05/24 10:22:23;;;;;;;6.90;3.83;;;;;;;15.29;86.28;100583.03;5100560;27;20050;-74
2021/05/24 10:25:29;;;;;;;10.18;4.55;;;;;;;15.22;86.49;100590.09;5100817;27;20590;-73
2021/05/24 10:28:34;;;;;;;8.18;4.53;;;;;;;15.20;86.76;100568.63;5112107;27;20054;-73
2021/05/24 10:31:40;;;;;;;10.15;4.88;;;;;;;15.02;87.20;100548.88;5099901;27;20047;-73
2021/05/24 10:34:44;;;;;;;7.68;4.80;;;;;;;14.90;87.04;100509.59;5100032;27;20042;-73
2021/05/24 10:37:49;;;;;;;6.45;4.50;;;;;;;14.97;87.34;100502.56;5100344;27;20050;-73
2021/05/24 10:41:20;;;;;;;6.90;4.30;;;;;;;15.09;87.62;100524.75;5111984;27;20128;-73
2021/05/24 10:44:39;;;;;;;7.22;3.88;;;;;;;15.08;87.75;100493.34;5099911;27;20493;-75
2021/05/24 10:48:01;;;;;;;7.38;4.10;;;;;;;15.03;87.53;100482.16;5100084;27;20061;-74
2021/05/24 10:51:08;;;;;;;4.95;3.78;;;;;;;15.09;87.42;100492.31;5100217;27;20050;-77
2021/05/24 10:54:31;;;;;;;7.85;4.53;;;;;;;14.87;88.21;100499.97;5102690;27;20528;-74
2021/05/24 10:57:38;;;;;;;6.47;4.00;;;;;;;14.75;88.62;100476.06;5099935;27;20097;-77
2021/05/24 11:00:53;;;;;;;7.22;4.45;;;;;;;14.78;88.77;100484.69;5099743;27;20050;-74
2021/05/24 11:04:10;;;;;;;6.07;4.00;;;;;;;14.88;88.52;100501.66;5099526;27;20058;-76
2021/05/24 11:07:34;;;;;;;8.15;4.63;;;;;;;15.08;88.61;100532.03;5099630;27;20042;-74
2021/05/24 11:10:39;;;;;;;8.60;4.18;;;;;;;15.28;88.25;100557.00;5099614;27;20058;-75
2021/05/24 11:14:04;;;;;;;6.30;3.75;;;;;;;15.14;87.75;100561.13;5122712;27;20062;-77
2021/05/24 11:17:09;;;;;;;8.07;3.38;;;;;;;15.09;88.77;100520.19;5111094;27;20062;-77
2021/05/24 11:20:49;;;;;;;12.10;3.95;;;;;;;15.18;88.46;100530.06;5099540;27;20054;-74
2021/05/24 11:27:11;;;;;;;5.15;3.50;;;;;;;14.90;88.53;100578.03;5111120;27;20046;-77
2021/05/24 11:30:28;;;;;;;6.95;3.65;;;;;;;14.94;88.82;100559.63;5099326;27;20046;-76
2021/05/24 11:33:47;;;;;;;5.00;3.60;;;;;;;14.88;89.15;100566.53;5099383;27;20042;-74
2021/05/24 11:36:53;;;;;;;6.40;3.33;;;;;;;14.95;89.08;100548.69;5111080;27;20054;-75
2021/05/24 11:39:58;;;;;;;7.00;3.63;;;;;;;15.12;89.10;100529.84;5114931;27;20046;-77
2021/05/24 11:43:12;;;;;;;4.95;3.50;;;;;;;15.20;88.98;100521.78;5112260;27;20046;-76
2021/05/24 11:46:16;;;;;;;6.67;3.77;;;;;;;15.30;88.34;100446.81;5104029;27;20042;-74
2021/05/24 11:49:31;;;;;;;9.98;3.33;;;;;;;15.43;87.14;100360.63;5114951;27;20398;-74
2021/05/24 11:52:38;;;;;;;5.35;3.50;;;;;;;15.41;86.55;100336.44;5098851;27;20038;-77
2021/05/24 11:55:42;;;;;;;7.35;3.38;;;;;;;15.77;85.97;100347.03;5100669;28;20054;-78
2021/05/24 11:58:57;;;;;;;5.00;3.47;;;;;;;16.07;85.88;100398.63;5112770;28;20051;-75
2021/05/24 12:02:04;;;;;;;4.78;3.28;;;;;;;16.36;85.31;100408.97;5105096;27;20065;-76
2021/05/24 12:05:10;;;;;;;5.10;3.15;;;;;;;16.41;83.92;100400.31;5102712;28;20386;-77
2021/05/24 12:08:19;;;;;;;5.10;3.30;;;;;;;16.37;83.45;100342.91;5110666;28;20042;-75
2021/05/24 12:11:23;;;;;;;3.97;3.00;;;;;;;16.55;83.04;100356.28;5096942;28;20050;-76
2021/05/24 12:14:28;;;;;;;6.15;3.90;;;;;;;16.84;81.68;100384.50;5102638;28;20050;-76
2021/05/24 12:17:35;;;;;;;5.45;3.53;;;;;;;17.09;80.74;100422.38;5101372;28;20035;-74
2021/05/24 12:20:40;;;;;;;4.70;3.42;;;;;;;17.13;80.11;100450.88;5090019;28;20509;-76
2021/05/24 12:23:50;;;;;;;6.82;4.10;;;;;;;17.25;79.44;100444.91;5090093;28;20051;-76
2021/05/24 12:26:57;;;;;;;3.70;2.80;;;;;;;17.15;79.08;100433.41;5090149;28;20047;-75
2021/05/24 12:30:07;;;;;;;5.80;3.40;;;;;;;16.98;79.90;100456.16;5113081;28;20054;-77
2021/05/24 12:33:15;;;;;;;4.93;3.47;;;;;;;17.16;81.04;100459.50;5090152;28;20054;-79
2021/05/24 12:36:20;;;;;;;5.65;3.00;;;;;;;17.12;80.15;100451.88;5090049;28;20485;-82
2021/05/24 12:39:28;;;;;;;5.00;3.03;;;;;;;16.93;80.49;100423.31;5089957;28;20047;-77
2021/05/24 12:42:40;;;;;;;4.13;3.10;;;;;;;16.78;80.69;100396.06;5101544;28;20075;-74
2021/05/24 12:45:47;;;;;;;4.97;3.30;;;;;;;16.66;81.90;100407.44;5090011;28;20047;-76
2021/05/24 12:48:52;;;;;;;5.82;3.40;;;;;;;16.72;82.23;100447.38;5101043;28;20043;-76
2021/05/24 12:52:02;;;;;;;5.78;3.63;;;;;;;16.82;81.74;100457.03;5089450;28;20059;-76
2021/05/24 12:55:30;;;;;;;6.03;3.50;;;;;;;16.67;81.77;100468.75;5095015;28;20054;-78
2021/05/24 12:58:39;;;;;;;5.15;3.45;;;;;;;16.60;82.84;100451.47;5093464;28;20051;-75
2021/05/24 13:01:43;;;;;;;5.25;3.35;;;;;;;16.50;83.06;100420.97;5093345;28;20055;-78
2021/05/24 13:04:48;;;;;;;5.03;3.63;;;;;;;16.31;84.21;100430.31;5093408;28;20394;-78
2021/05/24 13:07:57;;;;;;;4.25;3.67;;;;;;;16.10;83.88;100413.69;5094112;28;20054;-81
2021/05/24 13:11:04;;;;;;;4.40;3.55;;;;;;;15.99;84.30;100389.66;5093286;28;20051;-81
2021/05/24 13:14:09;;;;;;;5.03;3.50;;;;;;;16.00;84.06;100416.56;5093212;28;20051;-79
2021/05/24 13:17:23;;;;;;;4.00;3.40;;;;;;;16.05;84.29;100422.31;5093406;28;20054;-79
2021/05/24 13:24:25;;;;;;;11.75;9.70;;;;;;;15.98;85.70;100458.34;5116371;28;20058;-80
2021/05/24 13:30:18;;;;;;;5.28;4.03;;;;;;;15.57;87.63;100498.00;5104329;28;20050;-80
2021/05/24 13:33:43;;;;;;;4.70;3.50;;;;;;;15.51;88.17;100506.75;5093030;28;20050;-79
2021/05/24 13:36:47;;;;;;;6.80;4.10;;;;;;;15.59;87.80;100485.16;5116206;28;20062;-76
2021/05/24 13:40:03;;;;;;;7.55;3.97;;;;;;;15.55;87.68;100435.09;5116694;28;20390;-75
2021/05/24 13:43:08;;;;;;;6.03;4.28;;;;;;;15.62;87.09;100417.19;5116843;28;20476;-74
2021/05/24 13:46:12;;;;;;;6.60;3.85;;;;;;;15.72;87.01;100436.84;5115719;28;20051;-74
2021/05/24 13:49:20;;;;;;;5.97;4.32;;;;;;;15.86;86.87;100419.94;5116411;28;20063;-76
2021/05/24 13:52:25;;;;;;;5.97;4.22;;;;;;;15.80;87.59;100381.88;5115797;28;20055;-77
2021/05/24 13:55:29;;;;;;;6.50;4.22;;;;;;;15.69;87.20;100361.38;5128583;27;20054;-74
2021/05/24 13:58:35;;;;;;;7.43;4.15;;;;;;;15.60;87.76;100362.41;5124444;27;20050;-74
2021/05/24 14:01:40;;;;;;;5.72;4.60;;;;;;;15.46;87.90;100358.47;5136650;27;20058;-75
2021/05/24 14:04:44;;;;;;;5.63;4.40;;;;;;;15.27;89.31;100347.06;5123658;27;20054;-74
2021/05/24 14:07:48;;;;;;;5.63;5.00;;;;;;;15.20;90.56;100286.53;5137006;27;20050;-74
2021/05/24 14:10:53;;;;;;;7.43;5.68;;;;;;;15.17;91.42;100297.69;5136887;27;20046;-74
2021/05/24 14:13:57;;;;;;;6.50;5.15;;;;;;;15.24;91.61;100326.59;5137112;27;20382;-73
2021/05/24 14:17:02;;;;;;;6.25;5.30;;;;;;;15.37;91.38;100313.47;5136826;27;20477;-74
2021/05/24 14:20:09;;;;;;;8.43;5.38;;;;;;;15.26;91.30;100300.22;5125497;27;20042;-75
2021/05/24 14:23:13;;;;;;;6.43;5.07;;;;;;;15.29;91.07;100299.06;5136294;27;20394;-74
2021/05/24 14:26:18;;;;;;;5.32;4.80;;;;;;;15.36;91.93;100283.84;5136118;27;20108;-75
2021/05/24 14:29:23;;;;;;;10.20;5.15;;;;;;;15.39;91.49;100292.50;5136819;27;20054;-74
2021/05/24 14:32:27;;;;;;;5.20;4.70;;;;;;;15.41;90.50;100284.19;5136498;27;20050;-75